Time;durP1;ratioP1;P1;durP2;ratioP2;P2;SDS_P1;SDS_P2;PMS_P1;PMS_P2;Temp;Humidity;BMP_temperature;BMP_pressure;BME280_temperature;BME280_humidity;BME280_pressure;Samples;Min_cycle;Max_cycle;Signal;HPM_P1;HPM_P2
2023/11/27 00:00:09;;;;;;;6.77;4.87;;;2.70;99.90;;;;;;5058691;28;20239;-69
2023/11/27 00:02:34;;;;;;;5.43;4.73;;;2.70;99.90;;;;;;5034775;28;20190;-70
2023/11/27 00:04:59;;;;;;;11.53;5.23;;;2.70;99.90;;;;;;5033893;28;20441;-70
2023/11/27 00:07:25;;;;;;;7.27;5.60;;;2.70;99.90;;;;;;5048380;28;20214;-69
2023/11/27 00:09:50;;;;;;;4.87;4.20;;;2.70;99.90;;;;;;5054684;28;20208;-70
2023/11/27 00:12:16;;;;;;;4.97;4.33;;;2.70;99.90;;;;;;5047991;28;20189;-70
2023/11/27 00:14:41;;;;;;;7.27;6.20;;;2.70;99.90;;;;;;5043486;28;20566;-70
2023/11/27 00:17:07;;;;;;;5.00;4.23;;;2.70;99.90;;;;;;5051829;28;20181;-70
2023/11/27 00:19:32;;;;;;;5.40;4.57;;;2.70;99.90;;;;;;5055029;28;20213;-69
2023/11/27 00:21:58;;;;;;;6.20;5.37;;;2.70;99.90;;;;;;5054915;28;20226;-69
2023/11/27 00:24:23;;;;;;;5.77;5.17;;;2.70;99.90;;;;;;5040814;28;20205;-70
2023/11/27 00:26:49;;;;;;;8.20;5.30;;;2.70;99.90;;;;;;5054653;28;20256;-69
2023/11/27 00:29:15;;;;;;;5.97;5.43;;;2.70;99.90;;;;;;5058289;28;20392;-69
2023/11/27 00:31:40;;;;;;;7.47;5.47;;;2.70;99.90;;;;;;5049385;28;20174;-69
2023/11/27 00:34:06;;;;;;;9.47;6.13;;;2.70;99.90;;;;;;5048604;28;20205;-69
2023/11/27 00:36:31;;;;;;;9.77;6.07;;;2.70;99.90;;;;;;5056342;28;20276;-69
2023/11/27 00:38:57;;;;;;;5.67;5.17;;;2.70;99.90;;;;;;5031766;28;20198;-69
2023/11/27 00:41:23;;;;;;;6.57;5.87;;;2.70;99.90;;;;;;5031554;28;20755;-70
2023/11/27 00:43:50;;;;;;;7.50;5.40;;;2.70;99.90;;;;;;5034969;28;20560;-69
2023/11/27 00:46:15;;;;;;;7.10;4.90;;;2.70;99.90;;;;;;5040461;28;20191;-70
2023/11/27 00:48:42;;;;;;;9.17;6.47;;;2.70;99.90;;;;;;5058842;28;20985;-69
2023/11/27 00:51:09;;;;;;;9.03;6.67;;;2.60;99.90;;;;;;5055827;28;20816;-69
2023/11/27 00:53:35;;;;;;;6.47;5.20;;;2.60;99.90;;;;;;5059737;28;20432;-70
2023/11/27 00:56:00;;;;;;;7.27;5.30;;;2.50;99.90;;;;;;5050015;28;20452;-69
2023/11/27 00:58:26;;;;;;;7.60;5.60;;;2.50;99.90;;;;;;5050514;28;20200;-70
2023/11/27 01:00:54;;;;;;;5.43;4.90;;;2.50;99.90;;;;;;5034842;28;20579;-70
2023/11/27 01:03:19;;;;;;;7.00;5.23;;;2.50;99.90;;;;;;5034697;28;20190;-70
2023/11/27 01:05:45;;;;;;;6.20;4.77;;;2.50;99.90;;;;;;5050006;28;20462;-69
2023/11/27 01:08:13;;;;;;;6.10;5.13;;;2.40;99.90;;;;;;5061811;28;20185;-70
2023/11/27 01:10:39;;;;;;;5.97;5.10;;;2.40;99.90;;;;;;5062963;28;20193;-70
2023/11/27 01:13:04;;;;;;;5.50;4.43;;;2.40;99.90;;;;;;5064746;28;21035;-69
2023/11/27 01:15:30;;;;;;;5.77;4.40;;;2.40;99.90;;;;;;5049043;28;20174;-70
2023/11/27 01:17:56;;;;;;;6.93;5.17;;;2.40;99.90;;;;;;5060190;28;20174;-69
2023/11/27 01:20:22;;;;;;;4.80;4.40;;;2.40;99.90;;;;;;5048024;28;20195;-69
2023/11/27 01:22:49;;;;;;;6.27;4.57;;;2.40;99.90;;;;;;5037872;28;20433;-70
2023/11/27 01:25:15;;;;;;;6.20;4.77;;;2.30;99.90;;;;;;5050011;28;20176;-69
2023/11/27 01:27:41;;;;;;;5.80;5.20;;;2.30;99.90;;;;;;5065743;28;21092;-69
2023/11/27 01:30:07;;;;;;;9.43;4.50;;;2.30;99.90;;;;;;5051565;28;20450;-68
2023/11/27 01:32:33;;;;;;;7.00;5.07;;;2.30;99.90;;;;;;5049746;28;20440;-70
2023/11/27 01:34:58;;;;;;;7.33;4.43;;;2.30;99.90;;;;;;5048405;28;20446;-70
2023/11/27 01:37:24;;;;;;;6.23;4.90;;;2.30;99.90;;;;;;5057011;28;20178;-70
2023/11/27 01:39:49;;;;;;;5.17;4.60;;;2.30;99.90;;;;;;5038672;28;20206;-69
2023/11/27 01:42:15;;;;;;;6.20;5.50;;;2.30;99.90;;;;;;5064231;28;20197;-69
2023/11/27 01:44:40;;;;;;;7.00;5.33;;;2.30;99.90;;;;;;5038278;28;20675;-70
2023/11/27 01:47:07;;;;;;;6.20;5.50;;;2.30;99.90;;;;;;5043868;28;20739;-70
2023/11/27 01:49:33;;;;;;;5.77;4.63;;;2.30;99.90;;;;;;5057787;28;20284;-69
2023/11/27 01:52:00;;;;;;;6.00;4.63;;;2.30;99.90;;;;;;5062030;28;21000;-69
2023/11/27 01:54:26;;;;;;;8.60;6.27;;;2.30;99.90;;;;;;5049254;28;20529;-69
2023/11/27 01:56:53;;;;;;;5.47;4.53;;;2.30;99.90;;;;;;5065462;28;20431;-70
2023/11/27 01:59:20;;;;;;;5.17;4.67;;;2.30;99.90;;;;;;5049930;28;20455;-70
2023/11/27 02:01:46;;;;;;;4.50;4.10;;;2.30;99.90;;;;;;5056593;28;20427;-69
2023/11/27 02:04:11;;;;;;;4.77;4.27;;;2.30;99.90;;;;;;5051859;28;20476;-69
2023/11/27 02:06:37;;;;;;;4.83;4.27;;;2.30;99.90;;;;;;5050732;28;20186;-69
2023/11/27 02:09:03;;;;;;;6.60;4.30;;;2.30;99.90;;;;;;5056564;28;20182;-69
2023/11/27 02:11:30;;;;;;;7.77;4.57;;;2.40;99.90;;;;;;5067202;28;20181;-69
2023/11/27 02:13:55;;;;;;;4.63;4.13;;;2.40;99.90;;;;;;5053681;28;20427;-69
2023/11/27 02:16:22;;;;;;;5.73;5.13;;;2.40;99.90;;;;;;5043897;28;20436;-69
2023/11/27 02:18:48;;;;;;;5.93;4.27;;;2.40;99.90;;;;;;5034498;28;20174;-69
2023/11/27 02:21:13;;;;;;;4.27;3.87;;;2.40;99.90;;;;;;5053563;28;20554;-69
2023/11/27 02:23:39;;;;;;;6.60;4.53;;;2.40;99.90;;;;;;5051239;28;20205;-70
2023/11/27 02:26:05;;;;;;;4.63;4.17;;;2.40;99.90;;;;;;5050736;28;20202;-69
2023/11/27 02:28:30;;;;;;;4.47;4.07;;;2.40;99.90;;;;;;5052548;28;20267;-69
2023/11/27 02:30:56;;;;;;;5.23;4.10;;;2.40;99.90;;;;;;5050879;28;20706;-69
2023/11/27 02:33:21;;;;;;;8.40;5.00;;;2.50;99.90;;;;;;5042422;28;20178;-69
2023/11/27 02:35:48;;;;;;;4.87;4.37;;;2.50;99.90;;;;;;5042596;28;20707;-69
2023/11/27 02:38:13;;;;;;;5.67;4.47;;;2.50;99.90;;;;;;5060399;28;20189;-69
2023/11/27 02:40:39;;;;;;;6.00;4.10;;;2.50;99.90;;;;;;5060232;28;20446;-69
2023/11/27 02:43:05;;;;;;;5.40;4.30;;;2.60;99.90;;;;;;5063840;28;20216;-70
2023/11/27 02:45:32;;;;;;;6.03;3.17;;;2.60;99.90;;;;;;5059285;28;20185;-69
2023/11/27 02:47:57;;;;;;;4.07;3.70;;;2.70;99.90;;;;;;5049303;28;20290;-69
2023/11/27 02:50:23;;;;;;;4.20;3.70;;;2.70;99.90;;;;;;5052858;28;20664;-69
2023/11/27 02:52:49;;;;;;;4.27;3.70;;;2.70;99.90;;;;;;5054652;28;20181;-69
2023/11/27 02:55:15;;;;;;;3.23;2.93;;;2.70;99.90;;;;;;5039514;28;20175;-69
2023/11/27 02:57:40;;;;;;;5.83;3.23;;;2.70;99.90;;;;;;5033971;28;20431;-70
2023/11/27 03:00:06;;;;;;;4.60;4.13;;;2.80;99.90;;;;;;5049932;28;20682;-70
2023/11/27 03:02:32;;;;;;;4.10;3.70;;;2.70;99.90;;;;;;5045748;28;20181;-69
2023/11/27 03:04:58;;;;;;;4.87;3.40;;;2.80;99.90;;;;;;5057471;28;20462;-69
2023/11/27 03:07:23;;;;;;;4.53;3.47;;;2.80;99.90;;;;;;5043487;28;20252;-69
2023/11/27 03:09:49;;;;;;;4.77;3.63;;;2.80;99.90;;;;;;5051133;28;20208;-69
2023/11/27 03:12:15;;;;;;;3.50;3.10;;;2.80;99.90;;;;;;5050545;28;20219;-70
2023/11/27 03:14:41;;;;;;;4.60;2.97;;;2.80;99.90;;;;;;5053386;28;20289;-69
2023/11/27 03:17:06;;;;;;;4.93;3.20;;;2.80;99.90;;;;;;5053405;28;20203;-70
2023/11/27 03:19:32;;;;;;;4.67;3.70;;;2.80;99.90;;;;;;5054733;28;20212;-69
2023/11/27 03:21:57;;;;;;;4.53;3.63;;;2.90;99.90;;;;;;5053781;28;20188;-69
2023/11/27 03:24:23;;;;;;;4.30;3.50;;;2.90;99.90;;;;;;5055208;28;20678;-70
2023/11/27 03:26:49;;;;;;;5.10;3.70;;;2.90;99.90;;;;;;5059547;28;20181;-70
2023/11/27 03:29:15;;;;;;;3.63;3.00;;;2.90;99.90;;;;;;5038227;28;20558;-69
2023/11/27 03:31:40;;;;;;;3.20;2.90;;;3.00;99.90;;;;;;5049950;28;20540;-70
2023/11/27 03:34:06;;;;;;;4.90;2.63;;;3.00;99.90;;;;;;5051325;28;20437;-69
2023/11/27 03:36:32;;;;;;;3.10;2.67;;;3.00;99.90;;;;;;5056570;28;20766;-69
2023/11/27 03:38:58;;;;;;;2.93;2.27;;;3.00;99.90;;;;;;5047039;28;20436;-69
2023/11/27 03:41:23;;;;;;;2.70;2.50;;;3.00;99.90;;;;;;5053225;28;20667;-69
2023/11/27 03:43:49;;;;;;;4.13;3.57;;;3.00;99.90;;;;;;5053566;28;20197;-69
2023/11/27 03:46:15;;;;;;;5.37;2.83;;;3.00;99.90;;;;;;5050833;28;20185;-68
2023/11/27 03:48:41;;;;;;;5.13;2.73;;;3.00;99.90;;;;;;5047468;28;20490;-69
2023/11/27 03:51:07;;;;;;;3.03;2.77;;;3.00;99.90;;;;;;5053547;28;20663;-68
2023/11/27 03:53:32;;;;;;;3.20;2.30;;;3.00;99.90;;;;;;5057061;28;20655;-69
2023/11/27 03:55:58;;;;;;;3.20;2.80;;;3.00;99.90;;;;;;5043065;28;20495;-68
2023/11/27 03:58:23;;;;;;;5.83;3.23;;;3.00;99.90;;;;;;5055924;28;20264;-69
2023/11/27 04:00:49;;;;;;;3.40;2.97;;;3.00;99.90;;;;;;5035326;28;20198;-69
2023/11/27 04:03:15;;;;;;;5.87;2.33;;;3.10;99.90;;;;;;5043339;28;20201;-68
2023/11/27 04:05:40;;;;;;;2.37;2.17;;;3.10;99.90;;;;;;5049135;28;20601;-69
2023/11/27 04:08:07;;;;;;;2.60;2.27;;;3.10;99.90;;;;;;5053129;28;20174;-69
2023/11/27 04:10:33;;;;;;;3.03;2.43;;;3.10;99.90;;;;;;5031637;28;20213;-68
2023/11/27 04:12:59;;;;;;;2.77;2.40;;;3.00;99.90;;;;;;5034537;28;20424;-69
2023/11/27 04:15:25;;;;;;;2.83;2.47;;;3.00;99.90;;;;;;5052157;28;20201;-69
2023/11/27 04:17:50;;;;;;;3.10;2.90;;;3.00;99.90;;;;;;5048350;28;20178;-68
2023/11/27 04:20:16;;;;;;;2.57;2.37;;;2.90;99.90;;;;;;5042577;28;20753;-71
2023/11/27 04:22:45;;;;;;;2.50;2.30;;;2.90;99.90;;;;;;5050445;28;20258;-69
2023/11/27 04:25:11;;;;;;;3.97;2.77;;;2.80;99.90;;;;;;5052891;28;20451;-70
2023/11/27 04:27:36;;;;;;;3.67;2.93;;;2.80;99.90;;;;;;5067188;28;20460;-70
2023/11/27 04:30:05;;;;;;;3.43;2.30;;;2.80;99.90;;;;;;5053135;28;20466;-70
2023/11/27 04:32:30;;;;;;;4.57;3.17;;;2.70;99.90;;;;;;5052397;28;20181;-70
2023/11/27 04:34:56;;;;;;;3.10;2.70;;;2.70;99.90;;;;;;5055004;28;20462;-69
2023/11/27 04:37:21;;;;;;;3.10;2.80;;;2.70;99.90;;;;;;5048252;28;20233;-70
2023/11/27 04:39:47;;;;;;;4.37;2.60;;;2.70;99.90;;;;;;5064632;28;20263;-69
2023/11/27 04:42:12;;;;;;;2.83;2.60;;;2.70;99.90;;;;;;5043857;28;20175;-69
2023/11/27 04:44:39;;;;;;;3.37;3.07;;;2.70;99.90;;;;;;5035234;28;20187;-70
2023/11/27 04:47:05;;;;;;;3.23;2.70;;;2.70;99.90;;;;;;5057322;28;20184;-69
2023/11/27 04:49:31;;;;;;;3.80;2.20;;;2.70;99.90;;;;;;5047816;28;20454;-69
2023/11/27 04:51:57;;;;;;;3.50;3.20;;;2.70;99.90;;;;;;5044558;28;20428;-69
2023/11/27 04:54:22;;;;;;;4.10;3.20;;;2.70;99.90;;;;;;5044014;28;20201;-70
2023/11/27 04:56:48;;;;;;;3.20;2.90;;;2.70;99.90;;;;;;5057919;28;20795;-69
2023/11/27 04:59:13;;;;;;;4.53;2.80;;;2.70;99.90;;;;;;5061722;28;20269;-69
2023/11/27 05:01:39;;;;;;;4.53;3.23;;;2.70;99.90;;;;;;5047454;28;20188;-70
2023/11/27 05:04:05;;;;;;;3.13;2.83;;;2.60;99.90;;;;;;5055896;28;20689;-69
2023/11/27 05:06:30;;;;;;;3.23;2.60;;;2.60;99.90;;;;;;5061206;28;20449;-69
2023/11/27 05:08:56;;;;;;;4.00;2.63;;;2.60;99.90;;;;;;5049318;28;20560;-69
2023/11/27 05:11:22;;;;;;;5.00;2.80;;;2.60;99.90;;;;;;5062496;28;20335;-69
2023/11/27 05:13:48;;;;;;;4.37;2.60;;;2.60;99.90;;;;;;5050181;28;20195;-70
2023/11/27 05:16:14;;;;;;;2.90;2.37;;;2.60;99.90;;;;;;5049974;28;20177;-69
2023/11/27 05:18:43;;;;;;;6.00;2.43;;;2.60;99.90;;;;;;5055080;28;20466;-69
2023/11/27 05:21:13;;;;;;;4.37;2.60;;;2.60;99.90;;;;;;5055762;28;20467;-70
2023/11/27 05:23:43;;;;;;;2.80;2.60;;;2.50;99.90;;;;;;5049698;28;20900;-69
2023/11/27 05:26:09;;;;;;;3.60;3.30;;;2.50;99.90;;;;;;5039213;28;20433;-69
2023/11/27 05:28:36;;;;;;;3.17;2.83;;;2.40;99.90;;;;;;5063010;28;20468;-70
2023/11/27 05:31:01;;;;;;;3.20;2.60;;;2.40;99.90;;;;;;5054761;28;20460;-70
2023/11/27 05:33:27;;;;;;;3.23;2.17;;;2.40;99.90;;;;;;5059276;28;20808;-69
2023/11/27 05:35:53;;;;;;;2.20;2.00;;;2.40;99.90;;;;;;5045330;28;20182;-69
2023/11/27 05:38:18;;;;;;;2.60;2.40;;;2.40;99.90;;;;;;5063239;28;20184;-70
2023/11/27 05:40:44;;;;;;;2.73;1.90;;;2.40;99.90;;;;;;5064746;28;20458;-70
2023/11/27 05:43:11;;;;;;;5.60;3.13;;;2.50;99.90;;;;;;5065494;28;20216;-69
2023/11/27 05:45:37;;;;;;;4.23;3.83;;;2.40;99.90;;;;;;5072448;28;20176;-70
2023/11/27 05:48:05;;;;;;;3.50;3.00;;;2.40;99.90;;;;;;5061176;28;20434;-69
2023/11/27 05:50:31;;;;;;;4.30;2.40;;;2.40;99.90;;;;;;5053865;28;20443;-70
2023/11/27 05:52:57;;;;;;;2.90;2.67;;;2.40;99.90;;;;;;5056721;28;20453;-70
2023/11/27 05:55:23;;;;;;;2.97;2.60;;;2.40;99.90;;;;;;5069016;22;20480;-69
2023/11/27 05:57:48;;;;;;;3.17;2.23;;;2.50;99.90;;;;;;5031311;28;20248;-69
2023/11/27 06:00:14;;;;;;;4.30;3.00;;;2.50;99.90;;;;;;5044584;28;20600;-69
2023/11/27 06:02:40;;;;;;;3.13;2.60;;;2.50;99.90;;;;;;5038185;28;20205;-70
2023/11/27 06:05:06;;;;;;;2.70;2.50;;;2.50;99.90;;;;;;5042102;28;20216;-70
2023/11/27 06:07:31;;;;;;;3.83;2.20;;;2.50;99.90;;;;;;5040238;28;20185;-69
2023/11/27 06:09:57;;;;;;;3.60;2.20;;;2.50;99.90;;;;;;5047541;28;20986;-69
2023/11/27 06:12:25;;;;;;;2.63;2.03;;;2.50;99.90;;;;;;5043212;28;20570;-69
2023/11/27 06:14:51;;;;;;;2.83;2.40;;;2.50;99.90;;;;;;5043872;28;20219;-69
2023/11/27 06:17:17;;;;;;;3.30;2.40;;;2.60;99.90;;;;;;5032343;28;20433;-69
2023/11/27 06:19:43;;;;;;;5.83;2.97;;;2.60;99.90;;;;;;5039067;28;20925;-69
2023/11/27 06:22:08;;;;;;;2.97;2.20;;;2.60;99.90;;;;;;5051008;28;20235;-69
2023/11/27 06:24:34;;;;;;;3.80;3.40;;;2.60;99.90;;;;;;5047196;28;20823;-70
2023/11/27 06:27:00;;;;;;;3.67;2.50;;;2.60;99.90;;;;;;5042296;28;20295;-68
2023/11/27 06:29:25;;;;;;;3.00;2.70;;;2.60;99.90;;;;;;5044661;28;20235;-69
2023/11/27 06:31:51;;;;;;;4.67;2.50;;;2.70;99.90;;;;;;5048554;28;20577;-70
2023/11/27 06:34:16;;;;;;;4.90;2.80;;;2.70;99.90;;;;;;5046428;28;20252;-70
2023/11/27 06:36:42;;;;;;;2.83;2.63;;;2.70;99.90;;;;;;5048739;28;20283;-70
2023/11/27 06:39:08;;;;;;;4.10;3.70;;;2.70;99.90;;;;;;5036695;28;20184;-69
2023/11/27 06:41:34;;;;;;;4.23;3.60;;;2.70;99.90;;;;;;5043420;28;20979;-70
2023/11/27 06:44:00;;;;;;;5.10;3.90;;;2.60;99.90;;;;;;5032797;28;20249;-70
2023/11/27 06:46:27;;;;;;;6.33;3.50;;;2.60;99.90;;;;;;5039937;28;20507;-70
2023/11/27 06:48:53;;;;;;;3.00;2.70;;;2.60;99.90;;;;;;5032140;28;20508;-70
2023/11/27 06:51:19;;;;;;;4.33;3.60;;;2.60;99.90;;;;;;5032469;28;20504;-70
2023/11/27 06:53:45;;;;;;;3.60;3.13;;;2.60;99.90;;;;;;5032814;28;20178;-69
2023/11/27 06:56:10;;;;;;;5.90;4.13;;;2.60;99.90;;;;;;5032564;28;20587;-70
2023/11/27 06:58:36;;;;;;;6.43;3.97;;;2.60;99.90;;;;;;5032431;28;20180;-70
2023/11/27 07:01:04;;;;;;;4.30;3.67;;;2.60;99.90;;;;;;5032461;28;20186;-70
2023/11/27 07:03:30;;;;;;;5.00;3.60;;;2.70;99.90;;;;;;5032397;28;20210;-70
2023/11/27 07:05:55;;;;;;;4.30;3.90;;;2.70;99.90;;;;;;5032136;28;20457;-70
2023/11/27 07:08:21;;;;;;;5.20;4.07;;;2.70;99.90;;;;;;5032233;28;20170;-70
2023/11/27 07:10:47;;;;;;;4.50;3.63;;;2.70;99.90;;;;;;5032575;28;20219;-70
2023/11/27 07:13:13;;;;;;;9.37;4.13;;;2.70;99.90;;;;;;5032428;28;20429;-69
2023/11/27 07:15:38;;;;;;;5.87;3.90;;;2.70;99.90;;;;;;5031895;28;20352;-70
2023/11/27 07:18:04;;;;;;;4.47;3.90;;;2.70;99.90;;;;;;5032182;28;20174;-70
2023/11/27 07:20:31;;;;;;;5.13;4.20;;;2.70;99.90;;;;;;5031989;28;20202;-70
2023/11/27 07:22:58;;;;;;;6.47;3.90;;;2.70;99.90;;;;;;5031002;28;20435;-70
2023/11/27 07:25:24;;;;;;;11.43;4.93;;;2.70;99.90;;;;;;5032365;28;20448;-70
2023/11/27 07:27:49;;;;;;;5.37;4.20;;;2.70;99.90;;;;;;5031935;28;20413;-69
2023/11/27 07:30:18;;;;;;;4.27;3.87;;;2.70;99.90;;;;;;5032056;28;20708;-70
2023/11/27 07:32:44;;;;;;;7.20;3.00;;;2.70;99.90;;;;;;5032201;28;20177;-70
2023/11/27 07:35:10;;;;;;;4.70;3.43;;;2.70;99.90;;;;;;5031751;28;20504;-70
2023/11/27 07:37:39;;;;;;;5.63;4.20;;;2.80;99.90;;;;;;5031900;28;20500;-70
2023/11/27 07:40:10;;;;;;;6.20;4.10;;;2.80;99.90;;;;;;5032159;28;20182;-70
2023/11/27 07:42:38;;;;;;;4.27;3.53;;;2.80;99.90;;;;;;5032071;28;20416;-70
2023/11/27 07:45:05;;;;;;;5.07;3.90;;;2.90;99.90;;;;;;5032015;28;20465;-70
2023/11/27 07:47:30;;;;;;;8.60;4.00;;;2.90;99.90;;;;;;5031470;28;20433;-70
2023/11/27 07:49:56;;;;;;;6.33;4.27;;;3.00;99.90;;;;;;5031924;28;20963;-70
2023/11/27 07:52:22;;;;;;;5.60;4.23;;;3.00;99.90;;;;;;5031713;28;20641;-70
2023/11/27 07:54:47;;;;;;;6.07;4.57;;;3.10;99.90;;;;;;5032090;28;20678;-71
2023/11/27 07:57:14;;;;;;;5.90;3.70;;;3.10;99.90;;;;;;5031485;28;20202;-70
2023/11/27 07:59:40;;;;;;;6.40;4.90;;;3.10;99.90;;;;;;5032931;28;20166;-70
2023/11/27 08:02:06;;;;;;;9.67;4.50;;;3.10;99.90;;;;;;5035712;28;20455;-70
2023/11/27 08:04:33;;;;;;;8.47;5.00;;;3.10;99.90;;;;;;5035812;28;20201;-70
2023/11/27 08:06:59;;;;;;;7.30;5.30;;;3.10;99.90;;;;;;5035421;28;20239;-70
2023/11/27 08:09:25;;;;;;;7.60;5.13;;;3.10;99.90;;;;;;5035899;28;20509;-70
2023/11/27 08:11:50;;;;;;;5.73;4.87;;;3.10;99.90;;;;;;5035845;28;20460;-70
2023/11/27 08:14:17;;;;;;;6.87;5.27;;;3.10;99.90;;;;;;5035814;28;20225;-70
2023/11/27 08:16:43;;;;;;;5.33;4.67;;;3.10;99.90;;;;;;5035412;28;20213;-70
2023/11/27 08:19:13;;;;;;;5.60;4.73;;;3.20;99.90;;;;;;5035374;28;20429;-70
2023/11/27 08:21:39;;;;;;;10.63;5.03;;;3.10;99.90;;;;;;5035452;28;20428;-70
2023/11/27 08:24:05;;;;;;;4.93;4.33;;;3.10;99.90;;;;;;5035360;28;20456;-70
2023/11/27 08:26:39;;;;;;;5.97;4.13;;;3.20;99.90;;;;;;5035177;28;20445;-70
2023/11/27 08:29:08;;;;;;;8.40;6.03;;;3.20;99.90;;;;;;5035419;28;20421;-70
2023/11/27 08:31:35;;;;;;;6.60;5.33;;;3.30;99.90;;;;;;5035340;28;20421;-70
2023/11/27 08:34:02;;;;;;;11.77;5.73;;;3.30;99.90;;;;;;5035171;28;20513;-70
2023/11/27 08:36:27;;;;;;;9.00;6.63;;;3.30;99.90;;;;;;5034773;28;20462;-70
2023/11/27 08:38:55;;;;;;;5.67;5.17;;;3.30;99.90;;;;;;5035386;28;20417;-70
2023/11/27 08:41:21;;;;;;;9.03;5.80;;;3.30;99.90;;;;;;5035282;28;20699;-70
2023/11/27 08:43:46;;;;;;;5.83;4.70;;;3.40;99.90;;;;;;5035175;28;20539;-70
2023/11/27 08:46:15;;;;;;;8.17;5.33;;;3.50;99.90;;;;;;5035063;28;20554;-71
2023/11/27 08:48:40;;;;;;;10.83;4.93;;;3.60;99.90;;;;;;5034962;28;20197;-70
2023/11/27 08:51:07;;;;;;;9.03;5.90;;;3.70;99.90;;;;;;5034821;28;20417;-70
2023/11/27 08:53:33;;;;;;;5.83;4.43;;;3.70;99.90;;;;;;5035129;28;20174;-71
2023/11/27 08:55:59;;;;;;;6.60;4.30;;;3.70;99.90;;;;;;5034851;28;20506;-70
2023/11/27 08:58:24;;;;;;;5.53;4.47;;;3.70;99.90;;;;;;5034676;28;20167;-71
2023/11/27 09:00:51;;;;;;;6.13;4.73;;;3.80;99.90;;;;;;5034892;28;20432;-70
2023/11/27 09:03:18;;;;;;;5.83;4.67;;;3.90;99.90;;;;;;5034853;28;20694;-70
2023/11/27 09:05:44;;;;;;;4.87;3.50;;;3.90;99.90;;;;;;5034669;28;20448;-70
2023/11/27 09:08:10;;;;;;;6.37;4.57;;;3.90;99.90;;;;;;5034256;28;20432;-70
2023/11/27 09:10:36;;;;;;;8.90;6.40;;;3.90;99.90;;;;;;5034739;28;20420;-70
2023/11/27 09:13:04;;;;;;;5.57;4.77;;;3.90;99.90;;;;;;5034165;28;20190;-70
2023/11/27 09:15:29;;;;;;;5.63;4.07;;;4.00;99.90;;;;;;5034646;28;20796;-70
2023/11/27 09:17:55;;;;;;;5.87;4.23;;;4.00;99.90;;;;;;5034297;28;20409;-70
2023/11/27 09:20:21;;;;;;;4.93;4.10;;;4.20;99.90;;;;;;5034390;28;20167;-71
2023/11/27 09:22:46;;;;;;;3.73;3.33;;;4.30;99.90;;;;;;5034422;28;20492;-70
2023/11/27 09:25:12;;;;;;;5.90;4.33;;;4.40;99.90;;;;;;5034394;28;20202;-70
2023/11/27 09:27:46;;;;;;;3.60;3.30;;;4.40;99.90;;;;;;5034113;28;20174;-70
2023/11/27 09:30:12;;;;;;;4.47;4.07;;;4.50;99.90;;;;;;5034500;28;20158;-70
2023/11/27 09:32:38;;;;;;;6.50;4.20;;;4.50;99.90;;;;;;5034327;28;20447;-70
2023/11/27 09:35:08;;;;;;;5.10;3.47;;;4.60;99.90;;;;;;5034221;28;20417;-69
2023/11/27 09:37:35;;;;;;;4.47;4.03;;;4.60;99.90;;;;;;5033769;28;20432;-70
2023/11/27 09:40:01;;;;;;;4.70;3.63;;;4.60;99.90;;;;;;5034254;28;20785;-71
2023/11/27 09:42:35;;;;;;;4.50;3.60;;;4.70;99.90;;;;;;5034228;28;20425;-70
2023/11/27 09:45:05;;;;;;;5.70;5.07;;;4.70;99.90;;;;;;5034031;28;20573;-70
2023/11/27 09:47:31;;;;;;;3.53;3.23;;;4.70;99.90;;;;;;5033812;28;20425;-70
2023/11/27 09:49:59;;;;;;;4.90;3.10;;;4.80;99.90;;;;;;5034008;28;20432;-70
2023/11/27 09:52:33;;;;;;;12.50;8.37;;;4.80;99.90;;;;;;5033926;28;20938;-70
2023/11/27 09:55:04;;;;;;;13.83;9.90;;;4.70;99.90;;;;;;5033687;28;20803;-70
2023/11/27 09:57:32;;;;;;;4.47;4.07;;;4.70;99.90;;;;;;5033643;28;20428;-70
2023/11/27 09:59:59;;;;;;;3.47;3.17;;;4.70;99.90;;;;;;5033822;28;20408;-70
2023/11/27 10:02:25;;;;;;;4.30;3.47;;;4.70;99.90;;;;;;5033766;28;20445;-70
2023/11/27 10:04:53;;;;;;;4.30;3.53;;;4.70;99.90;;;;;;5033661;28;20547;-70
2023/11/27 10:07:21;;;;;;;5.27;3.37;;;4.70;99.90;;;;;;5033165;28;20206;-70
2023/11/27 10:09:51;;;;;;;5.17;3.33;;;4.70;99.90;;;;;;5033522;28;20482;-70
2023/11/27 10:12:28;;;;;;;5.27;3.30;;;4.70;99.90;;;;;;5033584;28;20452;-70
2023/11/27 10:14:57;;;;;;;5.13;3.40;;;4.70;99.90;;;;;;5033635;28;20424;-70
2023/11/27 10:17:24;;;;;;;4.30;4.00;;;4.70;99.90;;;;;;5033137;28;20950;-70
2023/11/27 10:19:53;;;;;;;6.40;3.30;;;4.80;99.90;;;;;;5033209;28;20941;-70
2023/11/27 10:22:19;;;;;;;4.60;3.17;;;4.80;99.90;;;;;;5033116;28;20781;-70
2023/11/27 10:24:45;;;;;;;5.80;3.40;;;4.80;99.90;;;;;;5032551;28;20459;-70
2023/11/27 10:27:10;;;;;;;2.97;2.77;;;4.90;99.90;;;;;;5032961;28;20983;-70
2023/11/27 10:29:36;;;;;;;3.30;2.93;;;4.90;99.90;;;;;;5033382;28;20417;-70
2023/11/27 10:32:02;;;;;;;4.00;3.00;;;4.90;99.90;;;;;;5033299;28;20205;-70
2023/11/27 10:34:34;;;;;;;5.20;3.23;;;4.90;99.90;;;;;;5033163;28;20253;-70
2023/11/27 10:37:01;;;;;;;2.80;2.60;;;4.80;99.90;;;;;;5032553;28;20710;-70
2023/11/27 10:39:34;;;;;;;3.57;3.00;;;4.80;99.90;;;;;;5032851;28;20429;-70
2023/11/27 10:42:03;;;;;;;3.53;2.47;;;4.80;99.90;;;;;;5033061;28;20451;-70
2023/11/27 10:44:40;;;;;;;3.40;3.10;;;4.80;99.90;;;;;;5032915;28;20441;-70
2023/11/27 10:47:07;;;;;;;8.33;3.17;;;4.90;99.90;;;;;;5032580;28;20455;-70
2023/11/27 10:49:37;;;;;;;4.37;3.37;;;5.00;99.90;;;;;;5032954;28;20421;-70
2023/11/27 10:52:03;;;;;;;7.13;3.93;;;5.10;99.90;;;;;;5032571;28;20435;-70
2023/11/27 10:54:30;;;;;;;4.30;3.80;;;5.10;99.90;;;;;;5032851;28;20417;-70
2023/11/27 10:57:02;;;;;;;3.93;3.47;;;5.10;99.90;;;;;;5032180;28;20834;-70
2023/11/27 10:59:30;;;;;;;3.93;3.13;;;5.10;99.90;;;;;;5032673;28;20559;-70
2023/11/27 11:02:00;;;;;;;3.90;3.37;;;5.20;99.90;;;;;;5032820;28;20911;-70
2023/11/27 11:04:37;;;;;;;7.07;3.53;;;5.30;99.90;;;;;;5032550;28;20563;-70
2023/11/27 11:07:11;;;;;;;6.50;3.90;;;5.40;99.90;;;;;;5032186;28;20874;-70
2023/11/27 11:09:37;;;;;;;3.83;3.50;;;5.60;99.90;;;;;;5032591;28;21003;-70
2023/11/27 11:12:06;;;;;;;5.00;3.03;;;5.80;99.90;;;;;;5032433;28;20449;-70
2023/11/27 11:14:32;;;;;;;2.90;2.70;;;6.10;99.90;;;;;;5032349;28;20660;-70
2023/11/27 11:17:12;;;;;;;3.67;3.37;;;6.20;99.90;;;;;;5032109;28;20441;-70
2023/11/27 11:20:16;;;;;;;2.87;2.67;;;6.10;99.90;;;;;;5032098;28;20949;-70
2023/11/27 11:22:55;;;;;;;4.00;3.40;;;6.10;99.90;;;;;;5031422;28;20490;-71
2023/11/27 11:25:51;;;;;;;3.63;3.30;;;6.00;99.90;;;;;;5032256;28;20990;-70
2023/11/27 11:28:39;;;;;;;4.43;3.50;;;5.90;99.90;;;;;;5032011;28;20421;-70
2023/11/27 11:31:30;;;;;;;3.37;2.90;;;5.80;99.90;;;;;;5032243;28;21003;-70
2023/11/27 11:33:56;;;;;;;3.33;3.03;;;5.70;99.90;;;;;;5032022;28;20535;-70
2023/11/27 11:36:32;;;;;;;3.20;2.60;;;5.70;99.90;;;;;;5031653;28;20453;-70
2023/11/27 11:39:02;;;;;;;4.57;2.83;;;5.70;99.90;;;;;;5032112;28;20188;-71
2023/11/27 11:41:28;;;;;;;5.40;3.20;;;5.60;99.90;;;;;;5032113;28;20421;-70
2023/11/27 11:44:16;;;;;;;3.80;3.50;;;5.60;99.90;;;;;;5031951;28;20492;-70
2023/11/27 11:46:45;;;;;;;2.80;2.60;;;5.50;99.90;;;;;;5031601;28;20453;-70
2023/11/27 11:49:11;;;;;;;3.00;2.70;;;5.60;99.90;;;;;;5031837;28;20447;-70
2023/11/27 11:51:59;;;;;;;3.67;2.33;;;5.60;99.90;;;;;;5031905;28;20412;-70
2023/11/27 11:54:40;;;;;;;3.73;2.57;;;5.60;99.90;;;;;;5032055;28;20220;-70
2023/11/27 11:57:22;;;;;;;4.33;1.90;;;5.50;99.90;;;;;;5032018;22;20543;-70
2023/11/27 11:59:50;;;;;;;3.40;1.83;;;5.50;99.90;;;;;;5013255;28;20421;-70
2023/11/27 12:02:21;;;;;;;2.60;2.10;;;5.50;99.90;;;;;;5013441;28;20476;-70
2023/11/27 12:04:53;;;;;;;2.63;1.97;;;5.50;99.90;;;;;;5016423;28;20450;-69
2023/11/27 12:07:21;;;;;;;5.13;2.00;;;5.50;99.90;;;;;;5025177;28;20448;-70
2023/11/27 12:09:49;;;;;;;2.80;1.87;;;5.50;99.90;;;;;;5033238;28;20417;-70
2023/11/27 12:12:15;;;;;;;4.77;1.97;;;5.60;99.90;;;;;;5033499;28;20416;-70
2023/11/27 12:14:42;;;;;;;2.00;1.80;;;5.60;99.90;;;;;;5033308;28;20431;-70
2023/11/27 12:17:07;;;;;;;3.80;2.90;;;5.60;99.90;;;;;;5031249;28;20787;-69
2023/11/27 12:19:34;;;;;;;2.33;1.63;;;5.60;99.90;;;;;;5031421;28;20479;-69
2023/11/27 12:22:00;;;;;;;2.00;1.80;;;5.50;99.90;;;;;;5033117;28;20193;-70
2023/11/27 12:24:25;;;;;;;1.97;1.30;;;5.50;99.90;;;;;;5033333;28;20813;-70
2023/11/27 12:26:52;;;;;;;2.40;1.80;;;5.60;99.90;;;;;;5032931;28;20194;-70
2023/11/27 12:29:21;;;;;;;2.23;2.03;;;5.60;99.90;;;;;;5033152;28;20539;-70
2023/11/27 12:31:47;;;;;;;7.20;1.77;;;5.60;99.90;;;;;;5033321;28;20567;-70
2023/11/27 12:34:16;;;;;;;2.30;2.10;;;5.50;99.90;;;;;;5031691;28;20459;-70
2023/11/27 12:36:44;;;;;;;2.70;2.00;;;5.50;99.90;;;;;;5033148;28;20444;-70
2023/11/27 12:39:11;;;;;;;2.27;1.70;;;5.60;99.90;;;;;;5033402;28;20431;-68
2023/11/27 12:41:37;;;;;;;2.37;1.77;;;5.50;99.90;;;;;;5033457;28;20412;-67
2023/11/27 12:44:16;;;;;;;2.20;1.43;;;5.40;99.90;;;;;;5032992;28;20458;-70
2023/11/27 12:46:52;;;;;;;1.43;1.33;;;5.30;99.90;;;;;;5033610;28;20186;-70
2023/11/27 12:49:22;;;;;;;4.90;1.30;;;5.30;99.90;;;;;;5035175;28;20998;-70
2023/11/27 12:51:51;;;;;;;1.90;1.13;;;5.30;99.90;;;;;;5036814;28;20497;-69
2023/11/27 12:54:20;;;;;;;2.97;1.40;;;5.20;99.90;;;;;;5037225;28;20452;-70
2023/11/27 12:56:52;;;;;;;2.53;1.23;;;5.10;99.90;;;;;;5036255;28;20964;-69